Terminal Aerodrome Forecast
Issued by NWS Cleveland, OH

Home | Current Version | Previous Version | Graphics & Text | Print | Product List | Glossary On
Versions: 1 2 3 4 5 6 7 8 9 10 11 12 13 14 15 16 17 18 19 20 21 22 23 24 25
000
FTUS41 KCLE 210300 AAC
TAFMFD
TAF AMD
KMFD 210318Z 2103/2124 27006KT P6SM SCT008 OVC015
      TEMPO 2103/2107 2SM -DZ BR OVC008
     FM210700 30010KT 3SM -DZ BR OVC006
     FM211500 32010G18KT 6SM BR SCT008 OVC015=

USA.gov is the U.S. government's official web portal to all federal, state and local government web resources and services.